sensor_id;sensor_type;location;lat;lon;timestamp;pressure;altitude;pressure_sealevel;temperature;humidity
15634;BME280;14654;48.898;8.308;2023-04-06T00:00:48;100591.44;;;1.17;97.47
15634;BME280;14654;48.898;8.308;2023-04-06T00:03:13;100589.56;;;1.12;97.70
15634;BME280;14654;48.898;8.308;2023-04-06T00:05:39;100594.47;;;1.05;97.49
15634;BME280;14654;48.898;8.308;2023-04-06T00:08:04;100596.78;;;0.99;97.14
15634;BME280;14654;48.898;8.308;2023-04-06T00:10:30;100591.38;;;0.90;97.44
15634;BME280;14654;48.898;8.308;2023-04-06T00:12:55;100596.25;;;0.84;97.74
15634;BME280;14654;48.898;8.308;2023-04-06T00:15:22;100593.53;;;0.79;97.91
15634;BME280;14654;48.898;8.308;2023-04-06T00:17:48;100593.41;;;0.76;97.97
15634;BME280;14654;48.898;8.308;2023-04-06T00:20:13;100599.38;;;0.76;98.05
15634;BME280;14654;48.898;8.308;2023-04-06T00:22:39;100590.88;;;0.76;98.39
15634;BME280;14654;48.898;8.308;2023-04-06T00:25:05;100594.13;;;0.72;98.57
15634;BME280;14654;48.898;8.308;2023-04-06T00:27:30;100590.59;;;0.68;98.64
15634;BME280;14654;48.898;8.308;2023-04-06T00:29:56;100594.72;;;0.65;98.58
15634;BME280;14654;48.898;8.308;2023-04-06T00:32:21;100592.81;;;0.59;98.82
15634;BME280;14654;48.898;8.308;2023-04-06T00:34:47;100602.00;;;0.55;98.80
15634;BME280;14654;48.898;8.308;2023-04-06T00:37:12;100604.47;;;0.52;98.98
15634;BME280;14654;48.898;8.308;2023-04-06T00:39:37;100596.69;;;0.49;99.06
15634;BME280;14654;48.898;8.308;2023-04-06T00:42:11;100594.97;;;0.48;99.68
15634;BME280;14654;48.898;8.308;2023-04-06T00:44:40;100593.22;;;0.47;99.70
15634;BME280;14654;48.898;8.308;2023-04-06T00:47:07;100594.03;;;0.46;99.99
15634;BME280;14654;48.898;8.308;2023-04-06T00:49:32;100597.41;;;0.45;100.00
15634;BME280;14654;48.898;8.308;2023-04-06T00:51:58;100590.53;;;0.42;99.93
15634;BME280;14654;48.898;8.308;2023-04-06T00:54:23;100587.91;;;0.41;100.00
15634;BME280;14654;48.898;8.308;2023-04-06T00:56:49;100586.22;;;0.41;99.89
15634;BME280;14654;48.898;8.308;2023-04-06T00:59:14;100596.41;;;0.41;99.87
15634;BME280;14654;48.898;8.308;2023-04-06T01:01:40;100589.59;;;0.40;99.90
15634;BME280;14654;48.898;8.308;2023-04-06T01:04:06;100586.16;;;0.40;99.76
15634;BME280;14654;48.898;8.308;2023-04-06T01:06:31;100583.63;;;0.40;99.92
15634;BME280;14654;48.898;8.308;2023-04-06T01:08:57;100584.50;;;0.40;99.79
15634;BME280;14654;48.898;8.308;2023-04-06T01:11:22;100582.06;;;0.43;100.00
15634;BME280;14654;48.898;8.308;2023-04-06T01:13:48;100577.88;;;0.45;100.00
15634;BME280;14654;48.898;8.308;2023-04-06T01:16:13;100577.03;;;0.45;99.79
15634;BME280;14654;48.898;8.308;2023-04-06T01:18:39;100581.25;;;0.44;99.38
15634;BME280;14654;48.898;8.308;2023-04-06T01:21:05;100579.44;;;0.42;99.38
15634;BME280;14654;48.898;8.308;2023-04-06T01:23:30;100578.59;;;0.41;99.33
15634;BME280;14654;48.898;8.308;2023-04-06T01:25:56;100574.25;;;0.39;99.40
15634;BME280;14654;48.898;8.308;2023-04-06T01:28:21;100574.25;;;0.39;99.30
15634;BME280;14654;48.898;8.308;2023-04-06T01:30:47;100567.38;;;0.36;99.20
15634;BME280;14654;48.898;8.308;2023-04-06T01:33:12;100569.06;;;0.36;99.06
15634;BME280;14654;48.898;8.308;2023-04-06T01:35:37;100564.78;;;0.35;99.17
15634;BME280;14654;48.898;8.308;2023-04-06T01:38:03;100563.84;;;0.33;99.16
15634;BME280;14654;48.898;8.308;2023-04-06T01:40:28;100558.69;;;0.31;99.10
15634;BME280;14654;48.898;8.308;2023-04-06T01:42:53;100559.56;;;0.32;99.35
15634;BME280;14654;48.898;8.308;2023-04-06T01:45:19;100560.38;;;0.30;99.33
15634;BME280;14654;48.898;8.308;2023-04-06T01:47:44;100554.34;;;0.28;99.35
15634;BME280;14654;48.898;8.308;2023-04-06T01:50:10;100551.75;;;0.27;99.37
15634;BME280;14654;48.898;8.308;2023-04-06T01:52:37;100550.03;;;0.26;99.70
15634;BME280;14654;48.898;8.308;2023-04-06T01:55:02;100543.19;;;0.25;99.77
15634;BME280;14654;48.898;8.308;2023-04-06T01:57:28;100544.03;;;0.25;99.86
15634;BME280;14654;48.898;8.308;2023-04-06T01:59:53;100549.03;;;0.22;99.70
15634;BME280;14654;48.898;8.308;2023-04-06T02:02:18;100545.44;;;0.17;99.69
15634;BME280;14654;48.898;8.308;2023-04-06T02:04:44;100544.41;;;0.12;99.73
15634;BME280;14654;48.898;8.308;2023-04-06T02:07:09;100545.97;;;0.08;99.73
15634;BME280;14654;48.898;8.308;2023-04-06T02:09:36;100551.81;;;0.06;99.81
15634;BME280;14654;48.898;8.308;2023-04-06T02:12:01;100553.34;;;0.02;99.67
15634;BME280;14654;48.898;8.308;2023-04-06T02:14:27;100549.97;;;0.02;99.96
15634;BME280;14654;48.898;8.308;2023-04-06T02:16:52;100543.94;;;-0.01;99.89
15634;BME280;14654;48.898;8.308;2023-04-06T02:19:18;100543.81;;;-0.04;99.57
15634;BME280;14654;48.898;8.308;2023-04-06T02:21:43;100535.25;;;-0.06;99.47
15634;BME280;14654;48.898;8.308;2023-04-06T02:24:08;100541.91;;;-0.09;99.29
15634;BME280;14654;48.898;8.308;2023-04-06T02:26:34;100536.81;;;-0.09;99.62
15634;BME280;14654;48.898;8.308;2023-04-06T02:28:59;100535.84;;;-0.13;99.69
15634;BME280;14654;48.898;8.308;2023-04-06T02:31:24;100534.97;;;-0.13;99.39
15634;BME280;14654;48.898;8.308;2023-04-06T02:33:50;100534.06;;;-0.16;99.54
15634;BME280;14654;48.898;8.308;2023-04-06T02:36:15;100540.81;;;-0.16;99.62
15634;BME280;14654;48.898;8.308;2023-04-06T02:38:41;100539.88;;;-0.18;99.60
15634;BME280;14654;48.898;8.308;2023-04-06T02:41:07;100536.53;;;-0.17;99.75
15634;BME280;14654;48.898;8.308;2023-04-06T02:43:32;100539.06;;;-0.17;99.53
15634;BME280;14654;48.898;8.308;2023-04-06T02:45:58;100537.41;;;-0.17;99.73
15634;BME280;14654;48.898;8.308;2023-04-06T02:48:23;100531.44;;;-0.17;99.61
15634;BME280;14654;48.898;8.308;2023-04-06T02:50:48;100529.69;;;-0.18;99.74
15634;BME280;14654;48.898;8.308;2023-04-06T02:53:14;100529.69;;;-0.18;99.64
15634;BME280;14654;48.898;8.308;2023-04-06T02:55:39;100527.16;;;-0.18;99.91
15634;BME280;14654;48.898;8.308;2023-04-06T02:58:05;100534.75;;;-0.20;99.85
15634;BME280;14654;48.898;8.308;2023-04-06T03:00:30;100530.47;;;-0.21;99.97
15634;BME280;14654;48.898;8.308;2023-04-06T03:02:56;100529.53;;;-0.23;100.00
15634;BME280;14654;48.898;8.308;2023-04-06T03:05:21;100527.78;;;-0.24;100.00
15634;BME280;14654;48.898;8.308;2023-04-06T03:07:46;100528.69;;;-0.23;100.00
15634;BME280;14654;48.898;8.308;2023-04-06T03:10:12;100528.72;;;-0.22;100.00
15634;BME280;14654;48.898;8.308;2023-04-06T03:12:37;100532.94;;;-0.22;100.00
15634;BME280;14654;48.898;8.308;2023-04-06T03:15:03;100532.13;;;-0.21;100.00
15634;BME280;14654;48.898;8.308;2023-04-06T03:17:28;100531.28;;;-0.22;100.00
15634;BME280;14654;48.898;8.308;2023-04-06T03:19:53;100527.84;;;-0.22;100.00
15634;BME280;14654;48.898;8.308;2023-04-06T03:22:19;100532.88;;;-0.24;100.00
15634;BME280;14654;48.898;8.308;2023-04-06T03:24:45;100532.84;;;-0.25;100.00
15634;BME280;14654;48.898;8.308;2023-04-06T03:27:10;100524.28;;;-0.27;100.00
15634;BME280;14654;48.898;8.308;2023-04-06T03:29:36;100528.44;;;-0.29;100.00
15634;BME280;14654;48.898;8.308;2023-04-06T03:32:01;100520.63;;;-0.34;100.00
15634;BME280;14654;48.898;8.308;2023-04-06T03:34:26;100523.97;;;-0.35;100.00
15634;BME280;14654;48.898;8.308;2023-04-06T03:36:52;100525.59;;;-0.37;100.00
15634;BME280;14654;48.898;8.308;2023-04-06T03:39:17;100529.88;;;-0.36;100.00
15634;BME280;14654;48.898;8.308;2023-04-06T03:41:43;100528.13;;;-0.37;100.00
15634;BME280;14654;48.898;8.308;2023-04-06T03:44:09;100533.22;;;-0.37;100.00
15634;BME280;14654;48.898;8.308;2023-04-06T03:46:34;100534.06;;;-0.37;100.00
15634;BME280;14654;48.898;8.308;2023-04-06T03:49:00;100535.75;;;-0.37;100.00
15634;BME280;14654;48.898;8.308;2023-04-06T03:51:25;100529.78;;;-0.38;100.00
15634;BME280;14654;48.898;8.308;2023-04-06T03:53:51;100532.31;;;-0.38;100.00
15634;BME280;14654;48.898;8.308;2023-04-06T03:56:16;100534.03;;;-0.38;100.00
15634;BME280;14654;48.898;8.308;2023-04-06T03:58:42;100538.25;;;-0.39;100.00
15634;BME280;14654;48.898;8.308;2023-04-06T04:01:09;100543.25;;;-0.40;100.00
15634;BME280;14654;48.898;8.308;2023-04-06T04:03:35;100540.59;;;-0.43;100.00
15634;BME280;14654;48.898;8.308;2023-04-06T04:06:00;100544.81;;;-0.44;100.00
15634;BME280;14654;48.898;8.308;2023-04-06T04:08:25;100552.31;;;-0.47;100.00
15634;BME280;14654;48.898;8.308;2023-04-06T04:10:51;100552.25;;;-0.49;100.00
15634;BME280;14654;48.898;8.308;2023-04-06T04:13:16;100548.78;;;-0.51;100.00
15634;BME280;14654;48.898;8.308;2023-04-06T04:15:42;100559.75;;;-0.52;100.00
15634;BME280;14654;48.898;8.308;2023-04-06T04:18:07;100560.50;;;-0.54;100.00
15634;BME280;14654;48.898;8.308;2023-04-06T04:20:33;100567.22;;;-0.56;100.00
15634;BME280;14654;48.898;8.308;2023-04-06T04:22:59;100565.34;;;-0.60;100.00
15634;BME280;14654;48.898;8.308;2023-04-06T04:25:24;100564.41;;;-0.63;100.00
15634;BME280;14654;48.898;8.308;2023-04-06T04:27:50;100566.81;;;-0.66;100.00
15634;BME280;14654;48.898;8.308;2023-04-06T04:30:16;100570.16;;;-0.67;100.00
15634;BME280;14654;48.898;8.308;2023-04-06T04:32:41;100574.38;;;-0.67;100.00
15634;BME280;14654;48.898;8.308;2023-04-06T04:35:07;100577.72;;;-0.68;100.00
15634;BME280;14654;48.898;8.308;2023-04-06T04:37:32;100574.25;;;-0.70;100.00
15634;BME280;14654;48.898;8.308;2023-04-06T04:39:59;100575.00;;;-0.73;100.00
15634;BME280;14654;48.898;8.308;2023-04-06T04:42:25;100579.19;;;-0.73;100.00
15634;BME280;14654;48.898;8.308;2023-04-06T04:44:50;100583.44;;;-0.74;100.00
15634;BME280;14654;48.898;8.308;2023-04-06T04:47:15;100584.28;;;-0.73;100.00
15634;BME280;14654;48.898;8.308;2023-04-06T04:49:41;100580.94;;;-0.72;100.00
15634;BME280;14654;48.898;8.308;2023-04-06T04:52:06;100587.03;;;-0.69;100.00
15634;BME280;14654;48.898;8.308;2023-04-06T04:54:32;100583.81;;;-0.65;100.00
15634;BME280;14654;48.898;8.308;2023-04-06T04:56:57;100589.81;;;-0.63;100.00
15634;BME280;14654;48.898;8.308;2023-04-06T04:59:22;100584.88;;;-0.59;100.00
15634;BME280;14654;48.898;8.308;2023-04-06T05:01:48;100583.41;;;-0.54;100.00
15634;BME280;14654;48.898;8.308;2023-04-06T05:04:13;100586.97;;;-0.49;100.00
15634;BME280;14654;48.898;8.308;2023-04-06T05:06:38;100582.91;;;-0.45;100.00
15634;BME280;14654;48.898;8.308;2023-04-06T05:09:04;100597.47;;;-0.41;100.00
15634;BME280;14654;48.898;8.308;2023-04-06T05:11:30;100597.63;;;-0.37;100.00
15634;BME280;14654;48.898;8.308;2023-04-06T05:13:56;100599.59;;;-0.31;100.00
15634;BME280;14654;48.898;8.308;2023-04-06T05:16:21;100609.19;;;-0.24;100.00
15634;BME280;14654;48.898;8.308;2023-04-06T05:18:47;100602.63;;;-0.19;100.00
15634;BME280;14654;48.898;8.308;2023-04-06T05:21:13;100598.56;;;-0.13;100.00
15634;BME280;14654;48.898;8.308;2023-04-06T05:23:38;100601.34;;;-0.07;100.00
15634;BME280;14654;48.898;8.308;2023-04-06T05:26:04;100605.06;;;0.01;100.00
15634;BME280;14654;48.898;8.308;2023-04-06T05:28:30;100607.06;;;0.08;100.00
15634;BME280;14654;48.898;8.308;2023-04-06T05:30:55;100611.75;;;0.20;100.00
15634;BME280;14654;48.898;8.308;2023-04-06T05:33:22;100616.06;;;0.45;100.00
15634;BME280;14654;48.898;8.308;2023-04-06T05:35:47;100613.00;;;0.77;100.00
15634;BME280;14654;48.898;8.308;2023-04-06T05:38:12;100612.03;;;0.98;99.26
15634;BME280;14654;48.898;8.308;2023-04-06T05:40:38;100621.06;;;1.14;98.24
15634;BME280;14654;48.898;8.308;2023-04-06T05:43:06;100622.56;;;1.33;97.72
15634;BME280;14654;48.898;8.308;2023-04-06T05:45:31;100617.31;;;1.54;96.85
15634;BME280;14654;48.898;8.308;2023-04-06T05:47:57;100619.69;;;1.75;96.07
15634;BME280;14654;48.898;8.308;2023-04-06T05:50:22;100622.13;;;1.98;95.59
15634;BME280;14654;48.898;8.308;2023-04-06T05:52:47;100611.72;;;2.19;94.54
15634;BME280;14654;48.898;8.308;2023-04-06T05:55:13;100622.41;;;2.65;93.26
15634;BME280;14654;48.898;8.308;2023-04-06T05:57:38;100615.78;;;3.02;91.66
15634;BME280;14654;48.898;8.308;2023-04-06T06:00:05;100612.28;;;3.31;90.56
15634;BME280;14654;48.898;8.308;2023-04-06T06:02:31;100615.66;;;3.63;89.39
15634;BME280;14654;48.898;8.308;2023-04-06T06:04:57;100611.16;;;3.90;87.95
15634;BME280;14654;48.898;8.308;2023-04-06T06:07:23;100610.97;;;4.19;86.74
15634;BME280;14654;48.898;8.308;2023-04-06T06:09:48;100614.69;;;4.33;85.90
15634;BME280;14654;48.898;8.308;2023-04-06T06:12:13;100614.13;;;4.47;85.16
15634;BME280;14654;48.898;8.308;2023-04-06T06:14:39;100603.19;;;4.55;84.38
15634;BME280;14654;48.898;8.308;2023-04-06T06:17:04;100608.50;;;4.65;84.24
15634;BME280;14654;48.898;8.308;2023-04-06T06:19:30;100615.56;;;4.75;83.78
15634;BME280;14654;48.898;8.308;2023-04-06T06:21:55;100607.38;;;4.93;83.19
15634;BME280;14654;48.898;8.308;2023-04-06T06:24:21;100603.28;;;5.03;82.20
15634;BME280;14654;48.898;8.308;2023-04-06T06:26:46;100597.41;;;5.10;82.13
15634;BME280;14654;48.898;8.308;2023-04-06T06:29:14;100603.63;;;5.22;81.82
15634;BME280;14654;48.898;8.308;2023-04-06T06:31:39;100596.28;;;5.43;81.20
15634;BME280;14654;48.898;8.308;2023-04-06T06:34:05;100595.28;;;5.89;79.12
15634;BME280;14654;48.898;8.308;2023-04-06T06:36:31;100593.44;;;6.37;77.80
15634;BME280;14654;48.898;8.308;2023-04-06T06:38:57;100593.97;;;6.80;76.42
15634;BME280;14654;48.898;8.308;2023-04-06T06:41:25;100597.81;;;7.21;75.41
15634;BME280;14654;48.898;8.308;2023-04-06T06:43:51;100594.84;;;7.70;74.11
15634;BME280;14654;48.898;8.308;2023-04-06T06:46:16;100595.97;;;8.14;72.85
15634;BME280;14654;48.898;8.308;2023-04-06T06:48:42;100589.22;;;8.36;71.78
15634;BME280;14654;48.898;8.308;2023-04-06T06:51:07;100597.06;;;8.50;71.17
15634;BME280;14654;48.898;8.308;2023-04-06T06:53:34;100592.03;;;8.77;70.58
15634;BME280;14654;48.898;8.308;2023-04-06T06:56:00;100592.06;;;8.97;70.25
15634;BME280;14654;48.898;8.308;2023-04-06T06:58:28;100592.09;;;9.12;69.65
15634;BME280;14654;48.898;8.308;2023-04-06T07:00:57;100592.97;;;9.21;69.19
15634;BME280;14654;48.898;8.308;2023-04-06T07:03:22;100586.09;;;9.24;68.87
15634;BME280;14654;48.898;8.308;2023-04-06T07:05:49;100596.44;;;9.29;68.63
15634;BME280;14654;48.898;8.308;2023-04-06T07:08:21;100590.41;;;9.33;68.53
15634;BME280;14654;48.898;8.308;2023-04-06T07:10:47;100594.72;;;9.37;68.61
15634;BME280;14654;48.898;8.308;2023-04-06T07:13:13;100586.97;;;9.40;68.08
15634;BME280;14654;48.898;8.308;2023-04-06T07:15:43;100593.00;;;9.41;67.96
15634;BME280;14654;48.898;8.308;2023-04-06T07:18:08;100592.13;;;9.39;68.01
15634;BME280;14654;48.898;8.308;2023-04-06T07:20:34;100593.00;;;9.39;68.01
15634;BME280;14654;48.898;8.308;2023-04-06T07:22:59;100584.38;;;9.31;67.91
15634;BME280;14654;48.898;8.308;2023-04-06T07:25:25;100584.38;;;9.26;68.09
15634;BME280;14654;48.898;8.308;2023-04-06T07:27:50;100590.38;;;9.21;68.37
15634;BME280;14654;48.898;8.308;2023-04-06T07:30:15;100597.25;;;9.19;68.69
15634;BME280;14654;48.898;8.308;2023-04-06T07:32:41;100601.56;;;9.12;68.62
15634;BME280;14654;48.898;8.308;2023-04-06T07:35:06;100592.09;;;9.06;69.53
15634;BME280;14654;48.898;8.308;2023-04-06T07:37:32;100587.78;;;9.00;69.94
15634;BME280;14654;48.898;8.308;2023-04-06T07:39:57;100587.75;;;8.93;70.72
15634;BME280;14654;48.898;8.308;2023-04-06T07:42:22;100592.03;;;8.88;71.15
15634;BME280;14654;48.898;8.308;2023-04-06T07:44:48;100589.44;;;8.81;71.70
15634;BME280;14654;48.898;8.308;2023-04-06T07:47:13;100593.72;;;8.81;72.03
15634;BME280;14654;48.898;8.308;2023-04-06T07:49:39;100597.19;;;8.83;72.45
15634;BME280;14654;48.898;8.308;2023-04-06T07:52:04;100598.03;;;8.82;72.18
15634;BME280;14654;48.898;8.308;2023-04-06T07:54:30;100596.31;;;8.81;72.07
15634;BME280;14654;48.898;8.308;2023-04-06T07:56:55;100593.72;;;8.81;71.76
15634;BME280;14654;48.898;8.308;2023-04-06T07:59:20;100596.31;;;8.79;71.53
15634;BME280;14654;48.898;8.308;2023-04-06T08:01:46;100592.88;;;8.80;71.07
15634;BME280;14654;48.898;8.308;2023-04-06T08:04:11;100592.88;;;8.87;70.91
15634;BME280;14654;48.898;8.308;2023-04-06T08:06:36;100596.34;;;8.89;70.34
15634;BME280;14654;48.898;8.308;2023-04-06T08:09:02;100598.06;;;8.90;70.23
15634;BME280;14654;48.898;8.308;2023-04-06T08:11:29;100588.59;;;8.93;70.25
15634;BME280;14654;48.898;8.308;2023-04-06T08:13:54;100591.22;;;8.98;70.34
15634;BME280;14654;48.898;8.308;2023-04-06T08:16:22;100593.78;;;9.04;70.20
15634;BME280;14654;48.898;8.308;2023-04-06T08:18:47;100590.38;;;9.11;69.59
15634;BME280;14654;48.898;8.308;2023-04-06T08:21:13;100588.66;;;9.15;68.39
15634;BME280;14654;48.898;8.308;2023-04-06T08:23:38;100586.09;;;9.20;67.75
15634;BME280;14654;48.898;8.308;2023-04-06T08:26:04;100587.81;;;9.27;67.56
15634;BME280;14654;48.898;8.308;2023-04-06T08:28:29;100584.38;;;9.34;67.42
15634;BME280;14654;48.898;8.308;2023-04-06T08:30:55;100587.81;;;9.41;67.23
15634;BME280;14654;48.898;8.308;2023-04-06T08:33:20;100583.53;;;9.46;66.88
15634;BME280;14654;48.898;8.308;2023-04-06T08:35:45;100574.03;;;9.54;66.69
15634;BME280;14654;48.898;8.308;2023-04-06T08:38:11;100582.66;;;9.63;66.65
15634;BME280;14654;48.898;8.308;2023-04-06T08:40:37;100582.66;;;9.72;65.88
15634;BME280;14654;48.898;8.308;2023-04-06T08:43:03;100575.78;;;9.80;65.69
15634;BME280;14654;48.898;8.308;2023-04-06T08:45:33;100579.22;;;9.87;65.41
15634;BME280;14654;48.898;8.308;2023-04-06T08:47:59;100580.91;;;9.93;64.95
15634;BME280;14654;48.898;8.308;2023-04-06T08:50:28;100577.47;;;10.01;64.65
15634;BME280;14654;48.898;8.308;2023-04-06T08:52:55;100574.84;;;10.06;64.47
15634;BME280;14654;48.898;8.308;2023-04-06T08:55:22;100573.13;;;10.06;64.51
15634;BME280;14654;48.898;8.308;2023-04-06T08:57:48;100570.53;;;10.11;64.70
15634;BME280;14654;48.898;8.308;2023-04-06T09:00:14;100579.13;;;10.22;64.83
15634;BME280;14654;48.898;8.308;2023-04-06T09:02:42;100577.38;;;10.34;64.98
15634;BME280;14654;48.898;8.308;2023-04-06T09:05:08;100575.63;;;10.44;64.67
15634;BME280;14654;48.898;8.308;2023-04-06T09:07:35;100572.19;;;10.51;64.34
15634;BME280;14654;48.898;8.308;2023-04-06T09:10:01;100575.56;;;10.61;64.35
15634;BME280;14654;48.898;8.308;2023-04-06T09:12:28;100576.41;;;10.66;64.42
15634;BME280;14654;48.898;8.308;2023-04-06T09:14:55;100583.28;;;10.73;64.40
15634;BME280;14654;48.898;8.308;2023-04-06T09:17:25;100576.34;;;10.80;64.19
15634;BME280;14654;48.898;8.308;2023-04-06T09:19:51;100574.59;;;10.83;64.13
15634;BME280;14654;48.898;8.308;2023-04-06T09:22:17;100582.31;;;10.90;63.94
15634;BME280;14654;48.898;8.308;2023-04-06T09:24:48;100572.81;;;10.93;63.80
15634;BME280;14654;48.898;8.308;2023-04-06T09:27:14;100571.91;;;10.97;63.39
15634;BME280;14654;48.898;8.308;2023-04-06T09:29:43;100571.91;;;11.02;63.39
15634;BME280;14654;48.898;8.308;2023-04-06T09:32:10;100571.84;;;11.08;62.88
15634;BME280;14654;48.898;8.308;2023-04-06T09:34:39;100566.66;;;11.15;62.89
15634;BME280;14654;48.898;8.308;2023-04-06T09:37:18;100558.84;;;11.19;63.01
15634;BME280;14654;48.898;8.308;2023-04-06T09:39:44;100561.41;;;11.25;63.10
15634;BME280;14654;48.898;8.308;2023-04-06T09:42:11;100560.47;;;11.33;62.79
15634;BME280;14654;48.898;8.308;2023-04-06T09:44:36;100554.41;;;11.37;63.30
15634;BME280;14654;48.898;8.308;2023-04-06T09:47:04;100558.63;;;11.46;63.37
15634;BME280;14654;48.898;8.308;2023-04-06T09:49:33;100559.44;;;11.52;63.00
15634;BME280;14654;48.898;8.308;2023-04-06T09:52:02;100561.97;;;11.60;62.83
15634;BME280;14654;48.898;8.308;2023-04-06T09:54:30;100555.81;;;11.72;62.63
15634;BME280;14654;48.898;8.308;2023-04-06T09:57:11;100556.63;;;11.79;61.94
15634;BME280;14654;48.898;8.308;2023-04-06T09:59:55;100557.44;;;11.85;61.96
15634;BME280;14654;48.898;8.308;2023-04-06T10:05:43;100559.81;;;12.07;61.39
15634;BME280;14654;48.898;8.308;2023-04-06T10:08:12;100557.94;;;12.18;60.87
15634;BME280;14654;48.898;8.308;2023-04-06T10:10:38;100558.72;;;12.28;59.72
15634;BME280;14654;48.898;8.308;2023-04-06T10:13:04;100556.09;;;12.31;59.52
15634;BME280;14654;48.898;8.308;2023-04-06T10:15:30;100556.16;;;12.27;59.30
15634;BME280;14654;48.898;8.308;2023-04-06T10:18:00;100555.25;;;12.31;59.44
15634;BME280;14654;48.898;8.308;2023-04-06T10:23:34;100554.22;;;12.44;57.26
15634;BME280;14654;48.898;8.308;2023-04-06T10:26:01;100556.72;;;12.52;57.49
15634;BME280;14654;48.898;8.308;2023-04-06T10:28:31;100555.66;;;12.64;57.85
15634;BME280;14654;48.898;8.308;2023-04-06T10:31:05;100563.25;;;12.81;57.95
15634;BME280;14654;48.898;8.308;2023-04-06T10:33:31;100549.25;;;12.91;57.05
15634;BME280;14654;48.898;8.308;2023-04-06T10:35:57;100543.97;;;12.98;56.36
15634;BME280;14654;48.898;8.308;2023-04-06T10:38:53;100542.94;;;13.08;56.66
15634;BME280;14654;48.898;8.308;2023-04-06T10:41:19;100545.41;;;13.16;56.54
15634;BME280;14654;48.898;8.308;2023-04-06T10:43:55;100542.66;;;13.25;56.81
15634;BME280;14654;48.898;8.308;2023-04-06T10:46:25;100542.63;;;13.28;56.61
15634;BME280;14654;48.898;8.308;2023-04-06T10:48:51;100542.59;;;13.31;56.40
15634;BME280;14654;48.898;8.308;2023-04-06T10:51:18;100526.03;;;13.37;54.77
15634;BME280;14654;48.898;8.308;2023-04-06T10:53:45;100521.72;;;13.36;52.15
15634;BME280;14654;48.898;8.308;2023-04-06T10:56:14;100524.25;;;13.40;53.19
15634;BME280;14654;48.898;8.308;2023-04-06T10:58:47;100515.34;;;13.55;53.65
15634;BME280;14654;48.898;8.308;2023-04-06T11:01:14;100510.69;;;13.73;54.04
15634;BME280;14654;48.898;8.308;2023-04-06T11:03:51;100506.88;;;13.91;53.95
15634;BME280;14654;48.898;8.308;2023-04-06T11:06:20;100516.22;;;14.03;53.73
15634;BME280;14654;48.898;8.308;2023-04-06T11:08:46;100505.50;;;14.18;53.79
15634;BME280;14654;48.898;8.308;2023-04-06T11:11:14;100511.16;;;14.38;53.68
15634;BME280;14654;48.898;8.308;2023-04-06T11:16:23;100501.78;;;14.71;52.50
15634;BME280;14654;48.898;8.308;2023-04-06T11:18:59;100500.47;;;14.91;52.47
15634;BME280;14654;48.898;8.308;2023-04-06T11:21:36;100490.25;;;15.19;52.67
15634;BME280;14654;48.898;8.308;2023-04-06T11:26:30;100489.00;;;15.67;52.46
15634;BME280;14654;48.898;8.308;2023-04-06T11:28:56;100487.59;;;15.89;52.74
15634;BME280;14654;48.898;8.308;2023-04-06T11:31:25;100485.28;;;16.09;52.63
15634;BME280;14654;48.898;8.308;2023-04-06T11:33:56;100485.44;;;16.33;52.46
15634;BME280;14654;48.898;8.308;2023-04-06T11:36:21;100475.53;;;16.44;51.93
15634;BME280;14654;48.898;8.308;2023-04-06T11:38:47;100473.47;;;16.56;51.91
15634;BME280;14654;48.898;8.308;2023-04-06T11:41:12;100469.56;;;16.69;51.48
15634;BME280;14654;48.898;8.308;2023-04-06T11:43:37;100461.59;;;16.72;50.65
15634;BME280;14654;48.898;8.308;2023-04-06T11:46:03;100462.56;;;16.70;50.58
15634;BME280;14654;48.898;8.308;2023-04-06T11:48:30;100459.88;;;16.71;50.90
15634;BME280;14654;48.898;8.308;2023-04-06T11:50:59;100457.97;;;16.78;50.13
15634;BME280;14654;48.898;8.308;2023-04-06T11:53:27;100463.13;;;16.80;49.92
15634;BME280;14654;48.898;8.308;2023-04-06T11:55:53;100455.19;;;16.83;50.50
15634;BME280;14654;48.898;8.308;2023-04-06T11:58:19;100455.94;;;16.86;50.62
15634;BME280;14654;48.898;8.308;2023-04-06T12:00:44;100450.41;;;16.97;50.69
15634;BME280;14654;48.898;8.308;2023-04-06T12:03:13;100452.59;;;17.10;50.81
15634;BME280;14654;48.898;8.308;2023-04-06T12:05:39;100450.53;;;17.19;50.25
15634;BME280;14654;48.898;8.308;2023-04-06T12:08:05;100449.41;;;17.27;50.21
15634;BME280;14654;48.898;8.308;2023-04-06T12:10:30;100447.44;;;17.33;50.29
15634;BME280;14654;48.898;8.308;2023-04-06T12:12:55;100448.94;;;17.41;50.18
15634;BME280;14654;48.898;8.308;2023-04-06T12:15:21;100438.00;;;17.29;49.16
15634;BME280;14654;48.898;8.308;2023-04-06T12:17:46;100434.63;;;17.26;48.84
15634;BME280;14654;48.898;8.308;2023-04-06T12:20:12;100439.19;;;17.19;48.76
15634;BME280;14654;48.898;8.308;2023-04-06T12:22:38;100438.19;;;17.23;48.98
15634;BME280;14654;48.898;8.308;2023-04-06T12:25:04;100432.00;;;17.26;48.98
15634;BME280;14654;48.898;8.308;2023-04-06T12:27:29;100435.47;;;17.26;48.68
15634;BME280;14654;48.898;8.308;2023-04-06T12:29:55;100432.16;;;17.21;47.89
15634;BME280;14654;48.898;8.308;2023-04-06T12:32:21;100422.78;;;17.15;48.25
15634;BME280;14654;48.898;8.308;2023-04-06T12:34:46;100428.00;;;17.15;48.94
15634;BME280;14654;48.898;8.308;2023-04-06T12:37:12;100428.63;;;17.22;48.86
15634;BME280;14654;48.898;8.308;2023-04-06T12:39:37;100425.13;;;17.23;47.93
15634;BME280;14654;48.898;8.308;2023-04-06T12:42:02;100422.44;;;17.25;48.25
15634;BME280;14654;48.898;8.308;2023-04-06T12:44:29;100418.00;;;17.27;46.74
15634;BME280;14654;48.898;8.308;2023-04-06T12:46:54;100407.69;;;17.24;47.08
15634;BME280;14654;48.898;8.308;2023-04-06T12:49:20;100414.56;;;17.26;47.22
15634;BME280;14654;48.898;8.308;2023-04-06T12:51:47;100421.34;;;17.32;47.23
15634;BME280;14654;48.898;8.308;2023-04-06T12:54:12;100419.25;;;17.42;47.33
15634;BME280;14654;48.898;8.308;2023-04-06T12:56:38;100410.25;;;17.49;46.49
15634;BME280;14654;48.898;8.308;2023-04-06T12:59:03;100410.00;;;17.57;46.25